LFPG 171000Z 22018KT 9999 BKN021 10/05 Q1017 TEMPO 23015G30KT

ElémentsDécodage
LFPG Station météo située sur l'aérodrome de PARIS Charles-de-Gaulle
171000Z émis le 17 du mois à 10h00 UTC
22018KT vent du 220°, 18 noeuds
9999 visibilité horizontale supérieure à 10 Km
BKN021 nuages morcelés (5/8 à 7/8) à 2100 pieds
10/05 température 10°C, point de rosée 05°C
 soit une humidité relative de 71%
Q1017 la pression au niveau de la mer (QNH) est de 1017 hPa
TEMPO fluctuation temporaire prévue
23015G30KT vent du 230°, moyenne: 15 noeuds, avec rafales à 30 noeuds